Time;durP1;ratioP1;P1;durP2;ratioP2;P2;SDS_P1;SDS_P2;PMS_P1;PMS_P2;Temp;Humidity;BMP_temperature;BMP_pressure;BME280_temperature;BME280_humidity;BME280_pressure;Samples;Min_cycle;Max_cycle;Signal;HPM_P1;HPM_P2
2021/12/27 00:00:07;;;;;;;13.32;8.73;;;3.30;99.90;;;;;;4955686;28;20070;-88
2021/12/27 00:02:33;;;;;;;11.77;7.78;;;3.40;99.90;;;;;;4979317;28;20113;-88
2021/12/27 00:04:58;;;;;;;11.70;7.57;;;3.30;99.90;;;;;;4967570;28;20622;-90
2021/12/27 00:07:24;;;;;;;11.05;7.45;;;3.40;99.90;;;;;;4962824;28;20031;-89
2021/12/27 00:09:50;;;;;;;14.52;8.90;;;3.30;99.90;;;;;;4963245;28;20054;-88
2021/12/27 00:12:15;;;;;;;12.20;7.68;;;3.40;99.90;;;;;;4973608;28;20463;-87
2021/12/27 00:14:41;;;;;;;14.23;8.93;;;3.40;99.90;;;;;;4963727;28;20038;-88
2021/12/27 00:17:07;;;;;;;11.05;8.18;;;3.30;99.90;;;;;;4968321;28;20038;-88
2021/12/27 00:19:32;;;;;;;12.00;7.50;;;3.30;99.90;;;;;;4955802;28;20078;-89
2021/12/27 00:21:58;;;;;;;10.40;6.78;;;3.40;99.90;;;;;;4963692;28;20031;-88
2021/12/27 00:24:24;;;;;;;10.43;7.63;;;3.30;99.90;;;;;;4963728;28;20145;-87
2021/12/27 00:26:52;;;;;;;11.68;7.28;;;3.30;99.90;;;;;;4974906;28;20428;-88
2021/12/27 00:29:18;;;;;;;9.90;6.72;;;3.30;99.90;;;;;;4952710;28;20118;-88
2021/12/27 00:31:44;;;;;;;12.68;7.95;;;3.30;99.90;;;;;;4974626;28;20447;-87
2021/12/27 00:34:09;;;;;;;13.35;8.07;;;3.30;99.90;;;;;;4961448;28;20045;-88
2021/12/27 00:36:35;;;;;;;11.18;6.63;;;3.30;99.90;;;;;;4969259;28;20035;-87
2021/12/27 00:39:09;;;;;;;12.10;7.55;;;3.30;99.90;;;;;;4973058;28;20035;-88
2021/12/27 00:41:36;;;;;;;11.73;7.47;;;3.40;99.90;;;;;;4968948;28;20038;-88
2021/12/27 00:44:01;;;;;;;9.20;6.57;;;3.40;99.90;;;;;;4975960;28;20041;-88
2021/12/27 00:46:27;;;;;;;10.13;6.50;;;3.40;99.90;;;;;;4952769;28;20038;-88
2021/12/27 00:48:52;;;;;;;10.75;7.07;;;3.40;99.90;;;;;;4950341;28;20058;-87
2021/12/27 00:51:18;;;;;;;11.85;7.88;;;3.40;99.90;;;;;;4950510;28;20026;-88
2021/12/27 00:53:45;;;;;;;11.25;6.97;;;3.40;99.90;;;;;;4963268;28;23045;-87
2021/12/27 00:56:10;;;;;;;9.23;6.35;;;3.50;99.90;;;;;;4972513;28;20034;-88
2021/12/27 00:58:36;;;;;;;10.38;6.68;;;3.50;99.90;;;;;;4977359;28;20501;-88
2021/12/27 01:01:02;;;;;;;9.75;6.55;;;3.50;99.90;;;;;;4947033;28;20030;-88
2021/12/27 01:03:27;;;;;;;9.65;6.57;;;3.50;99.90;;;;;;4976224;28;20446;-87
2021/12/27 01:05:53;;;;;;;9.90;7.00;;;3.50;99.90;;;;;;4961710;28;20139;-87
2021/12/27 01:08:19;;;;;;;9.45;6.40;;;3.50;99.90;;;;;;4949247;28;20118;-87
2021/12/27 01:13:46;;;;;;;8.45;5.40;;;3.60;99.90;;;;;;4972036;28;20054;-88
2021/12/27 01:16:12;;;;;;;7.63;5.20;;;3.60;99.90;;;;;;4962739;28;20117;-87
2021/12/27 01:18:47;;;;;;;9.38;5.75;;;3.60;99.90;;;;;;4983757;28;20088;-87
2021/12/27 01:21:15;;;;;;;10.15;6.88;;;3.60;99.90;;;;;;4952428;28;20034;-87
2021/12/27 01:23:40;;;;;;;8.18;5.60;;;3.70;99.90;;;;;;4960361;28;20105;-90
2021/12/27 01:26:06;;;;;;;9.05;6.50;;;3.70;99.90;;;;;;4956143;28;20034;-88
2021/12/27 01:28:37;;;;;;;9.82;6.15;;;3.70;99.90;;;;;;4959353;28;20032;-87
2021/12/27 01:31:10;;;;;;;7.93;5.65;;;3.70;99.90;;;;;;4932727;28;20026;-89
2021/12/27 01:33:39;;;;;;;10.50;6.18;;;3.70;99.90;;;;;;4970457;28;20491;-88
2021/12/27 01:36:05;;;;;;;9.40;6.35;;;3.70;99.90;;;;;;4925929;28;20038;-90
2021/12/27 01:38:34;;;;;;;7.22;5.72;;;3.70;99.90;;;;;;4983681;28;20030;-89
2021/12/27 01:41:00;;;;;;;8.70;6.38;;;3.80;99.90;;;;;;4954973;28;20061;-87
2021/12/27 01:43:30;;;;;;;8.30;5.80;;;3.90;99.90;;;;;;4951963;28;20058;-88
2021/12/27 01:46:00;;;;;;;8.80;6.47;;;3.80;99.90;;;;;;4961133;28;20546;-88
2021/12/27 01:48:30;;;;;;;8.60;6.35;;;3.80;99.90;;;;;;4954547;28;20026;-88
2021/12/27 01:50:56;;;;;;;8.80;5.63;;;3.80;99.90;;;;;;4949332;28;20031;-88
2021/12/27 01:53:23;;;;;;;8.75;6.43;;;3.80;99.90;;;;;;4935240;28;20031;-88
2021/12/27 01:55:49;;;;;;;6.10;4.43;;;3.90;99.90;;;;;;4972228;28;20475;-88
2021/12/27 01:58:17;;;;;;;8.27;5.57;;;3.80;99.90;;;;;;4951014;28;20046;-88
2021/12/27 02:00:47;;;;;;;9.20;5.63;;;3.90;99.90;;;;;;4957975;28;20062;-89
2021/12/27 02:03:16;;;;;;;9.68;5.93;;;3.90;99.90;;;;;;4935473;28;20506;-88
2021/12/27 02:05:44;;;;;;;10.20;6.88;;;3.90;99.90;;;;;;4929210;28;20141;-88
2021/12/27 02:08:10;;;;;;;8.82;6.47;;;3.90;99.90;;;;;;4933075;28;20545;-89
2021/12/27 02:10:36;;;;;;;8.20;6.15;;;3.90;99.90;;;;;;4961537;28;20040;-88
2021/12/27 02:13:02;;;;;;;11.55;5.90;;;4.00;99.90;;;;;;4956984;28;20035;-87
2021/12/27 02:15:28;;;;;;;8.13;5.72;;;4.00;99.90;;;;;;4973363;28;20134;-88
2021/12/27 02:17:53;;;;;;;7.60;6.18;;;3.90;99.90;;;;;;4971061;28;20097;-87
2021/12/27 02:20:26;;;;;;;9.55;5.93;;;3.90;99.90;;;;;;4921738;28;20097;-88
2021/12/27 02:22:55;;;;;;;8.27;5.70;;;4.00;99.90;;;;;;4947857;28;20097;-88
2021/12/27 02:25:20;;;;;;;9.65;6.55;;;3.90;99.90;;;;;;4934775;28;20027;-88
2021/12/27 02:27:51;;;;;;;8.27;6.63;;;4.00;99.90;;;;;;4948700;28;20034;-88
2021/12/27 02:30:17;;;;;;;11.60;7.63;;;4.10;99.90;;;;;;4944523;28;20114;-88
2021/12/27 02:32:57;;;;;;;8.48;5.65;;;4.00;99.90;;;;;;4950115;28;20038;-87
2021/12/27 02:35:25;;;;;;;11.48;6.97;;;4.00;99.90;;;;;;4943607;28;20030;-88
2021/12/27 02:38:01;;;;;;;7.28;5.45;;;4.00;99.90;;;;;;4958123;28;20034;-88
2021/12/27 02:40:27;;;;;;;;;;;4.00;99.90;;;;;;4964269;28;20030;-87
2021/12/27 02:42:57;;;;;;;7.97;6.05;;;4.00;99.90;;;;;;4947309;28;19914;-87
2021/12/27 02:45:25;;;;;;;10.05;6.43;;;4.10;99.90;;;;;;4949030;28;20027;-87
2021/12/27 02:47:51;;;;;;;8.10;6.15;;;4.00;99.90;;;;;;4936455;28;20418;-88
2021/12/27 02:50:17;;;;;;;9.27;6.40;;;4.00;99.90;;;;;;4953387;28;20033;-88
2021/12/27 02:52:43;;;;;;;8.90;6.13;;;4.10;99.90;;;;;;4953416;28;20387;-89
2021/12/27 02:55:12;;;;;;;8.25;5.70;;;4.10;99.90;;;;;;4952692;28;20595;-88
2021/12/27 02:57:42;;;;;;;7.75;6.13;;;4.10;99.90;;;;;;4952411;28;20490;-85
2021/12/27 03:00:15;;;;;;;8.48;6.10;;;4.10;99.90;;;;;;4927226;28;20026;-88
2021/12/27 03:02:44;;;;;;;9.80;6.28;;;4.10;99.90;;;;;;4964356;28;20129;-88
2021/12/27 03:05:11;;;;;;;8.85;6.18;;;4.20;99.90;;;;;;4962939;28;20092;-88
2021/12/27 03:07:50;;;;;;;6.80;4.72;;;4.00;99.90;;;;;;4944963;28;20643;-88
2021/12/27 03:10:18;;;;;;;9.25;6.05;;;4.10;99.90;;;;;;4960870;28;20081;-89
2021/12/27 03:12:47;;;;;;;7.85;6.15;;;4.10;99.90;;;;;;4958120;28;20049;-88
2021/12/27 03:15:13;;;;;;;7.22;5.07;;;4.20;99.90;;;;;;4947177;28;20065;-88
2021/12/27 03:17:41;;;;;;;7.75;5.85;;;4.10;99.90;;;;;;4969334;28;20039;-86
2021/12/27 03:20:07;;;;;;;9.05;6.05;;;4.10;99.90;;;;;;4962640;28;20037;-90
2021/12/27 03:22:33;;;;;;;7.30;5.90;;;4.10;99.90;;;;;;4972857;28;20394;-87
2021/12/27 03:24:59;;;;;;;8.48;5.60;;;4.10;99.90;;;;;;4950160;28;20030;-89
2021/12/27 03:27:28;;;;;;;9.68;6.47;;;4.10;99.90;;;;;;4980941;28;20034;-89
2021/12/27 03:29:59;;;;;;;8.55;5.50;;;4.10;99.90;;;;;;4972710;28;20171;-89
2021/12/27 03:32:25;;;;;;;10.05;6.45;;;4.10;99.90;;;;;;4953870;28;20036;-88
2021/12/27 03:34:56;;;;;;;8.18;5.55;;;4.10;99.90;;;;;;4944165;28;20114;-88
2021/12/27 03:37:24;;;;;;;7.10;5.03;;;4.20;99.90;;;;;;4933857;28;20050;-87
2021/12/27 03:39:50;;;;;;;9.43;5.88;;;4.20;99.90;;;;;;4940688;28;20406;-88
2021/12/27 03:42:16;;;;;;;10.32;6.65;;;4.20;99.90;;;;;;4934454;28;20023;-88
2021/12/27 03:44:45;;;;;;;8.35;6.35;;;4.10;99.90;;;;;;4955243;28;20073;-88
2021/12/27 03:47:11;;;;;;;9.10;7.05;;;4.20;99.90;;;;;;4961062;28;20035;-88
2021/12/27 03:49:37;;;;;;;12.52;7.40;;;4.20;99.90;;;;;;4971633;28;20391;-88
2021/12/27 03:52:03;;;;;;;8.73;5.78;;;4.20;99.90;;;;;;4983017;28;20427;-88
2021/12/27 03:54:28;;;;;;;10.05;7.15;;;4.20;99.90;;;;;;4955651;28;20101;-87
2021/12/27 03:56:54;;;;;;;11.02;7.75;;;4.20;99.90;;;;;;4965417;28;20042;-89
2021/12/27 04:02:23;;;;;;;11.02;6.70;;;4.20;99.90;;;;;;4934799;28;20106;-94
2021/12/27 04:04:49;;;;;;;11.65;7.22;;;4.30;99.90;;;;;;4942973;28;20047;-93
2021/12/27 04:07:15;;;;;;;8.80;5.97;;;4.30;99.90;;;;;;4975569;28;20035;-93
2021/12/27 04:09:40;;;;;;;11.25;7.63;;;4.30;99.90;;;;;;4978552;28;20130;-93
2021/12/27 04:12:07;;;;;;;10.25;6.75;;;4.30;99.90;;;;;;4968182;28;20450;-94
2021/12/27 04:14:32;;;;;;;12.85;7.45;;;4.30;99.90;;;;;;4985765;28;20109;-95
2021/12/27 04:16:58;;;;;;;12.80;8.27;;;4.30;99.90;;;;;;4985843;28;20054;-94
2021/12/27 04:19:29;;;;;;;11.98;8.25;;;4.30;99.90;;;;;;4963045;28;20038;-93
2021/12/27 04:21:55;;;;;;;12.68;8.73;;;4.30;99.90;;;;;;4976797;28;20578;-93
2021/12/27 04:24:20;;;;;;;11.85;7.47;;;4.30;99.90;;;;;;4969264;28;20030;-93
2021/12/27 04:26:46;;;;;;;10.75;7.32;;;4.40;99.90;;;;;;4987591;28;20034;-92
2021/12/27 04:29:12;;;;;;;12.35;7.72;;;4.40;99.90;;;;;;4972620;28;20082;-93
2021/12/27 04:31:37;;;;;;;12.75;8.35;;;4.30;99.90;;;;;;4956407;28;20035;-93
2021/12/27 04:34:03;;;;;;;12.18;7.97;;;4.30;99.90;;;;;;4964408;28;20031;-92
2021/12/27 04:36:31;;;;;;;12.38;8.02;;;4.30;99.90;;;;;;4966747;28;20041;-93
2021/12/27 04:38:57;;;;;;;11.65;8.48;;;4.30;99.90;;;;;;4961175;28;20117;-93
2021/12/27 04:41:23;;;;;;;11.68;8.02;;;4.40;99.90;;;;;;4957728;28;20050;-94
2021/12/27 04:43:49;;;;;;;14.43;9.27;;;4.40;99.90;;;;;;4930053;28;20061;-93
2021/12/27 04:46:15;;;;;;;12.27;8.20;;;4.50;99.90;;;;;;4952302;28;20126;-93
2021/12/27 04:48:40;;;;;;;12.40;6.85;;;4.30;99.90;;;;;;4946159;28;20043;-94
2021/12/27 04:51:06;;;;;;;12.70;8.00;;;4.40;99.90;;;;;;4927082;28;20042;-93
2021/12/27 04:53:36;;;;;;;11.45;7.80;;;4.50;99.90;;;;;;4978696;28;20031;-93
2021/12/27 04:56:02;;;;;;;10.27;7.72;;;4.30;99.90;;;;;;4953609;28;20034;-93
2021/12/27 04:58:28;;;;;;;12.60;7.75;;;4.40;99.90;;;;;;4978541;28;20041;-94
2021/12/27 05:00:54;;;;;;;10.93;7.22;;;4.30;99.90;;;;;;4945578;28;20045;-93
2021/12/27 05:03:20;;;;;;;11.43;7.03;;;4.30;99.90;;;;;;4945863;28;20034;-94
2021/12/27 05:05:47;;;;;;;13.65;8.27;;;4.30;99.90;;;;;;4971642;28;20259;-93
2021/12/27 05:08:12;;;;;;;10.50;6.88;;;4.30;99.90;;;;;;4965678;28;20078;-94
2021/12/27 05:10:38;;;;;;;9.80;6.72;;;4.30;99.90;;;;;;4987677;28;20070;-94
2021/12/27 05:13:09;;;;;;;9.10;5.65;;;4.30;99.90;;;;;;4960934;28;20125;-94
2021/12/27 05:15:34;;;;;;;9.23;6.15;;;4.30;99.90;;;;;;4967460;28;20045;-91
2021/12/27 05:18:03;;;;;;;8.15;5.18;;;4.20;99.90;;;;;;4967685;28;20110;-94
2021/12/27 05:20:29;;;;;;;8.00;5.18;;;4.30;99.90;;;;;;4941140;28;20459;-94
2021/12/27 05:22:55;;;;;;;9.70;6.05;;;4.20;99.90;;;;;;4966641;28;20031;-94
2021/12/27 05:25:20;;;;;;;7.60;5.72;;;4.30;99.90;;;;;;4954858;28;20031;-94
2021/12/27 05:27:46;;;;;;;8.50;6.22;;;4.20;99.90;;;;;;4973780;28;20109;-94
2021/12/27 05:30:12;;;;;;;10.20;7.10;;;4.20;99.90;;;;;;4971569;28;20031;-94
2021/12/27 05:32:40;;;;;;;6.47;5.05;;;4.20;99.90;;;;;;4950862;28;20031;-94
2021/12/27 05:35:06;;;;;;;10.98;7.72;;;4.20;99.90;;;;;;4964372;28;20034;-94
2021/12/27 05:37:32;;;;;;;8.25;6.50;;;4.20;99.90;;;;;;4982478;28;20372;-94
2021/12/27 05:40:05;;;;;;;10.45;7.28;;;4.20;99.90;;;;;;4963703;28;20046;-95
2021/12/27 05:42:32;;;;;;;8.10;5.97;;;4.20;99.90;;;;;;4935640;28;20050;-93
2021/12/27 05:44:57;;;;;;;9.63;6.70;;;4.20;99.90;;;;;;4960665;28;20045;-94
2021/12/27 05:47:23;;;;;;;8.95;6.18;;;4.20;99.90;;;;;;4964535;28;20122;-94
2021/12/27 05:49:49;;;;;;;8.40;6.00;;;4.20;99.90;;;;;;4973360;28;20062;-94
2021/12/27 05:52:14;;;;;;;10.88;6.53;;;4.20;99.90;;;;;;4974883;28;20388;-94
2021/12/27 05:54:40;;;;;;;11.07;7.88;;;4.30;99.90;;;;;;4970817;28;20034;-94
2021/12/27 05:57:06;;;;;;;13.23;7.78;;;4.20;99.90;;;;;;4975023;28;20043;-92
2021/12/27 05:59:34;;;;;;;10.60;7.13;;;4.30;99.90;;;;;;4969713;28;20042;-91
2021/12/27 06:02:00;;;;;;;10.20;7.05;;;4.10;99.90;;;;;;4942901;28;21486;-92
2021/12/27 06:04:26;;;;;;;9.52;7.05;;;4.30;99.90;;;;;;4985311;28;20062;-94
2021/12/27 06:06:52;;;;;;;10.27;6.88;;;4.30;99.90;;;;;;4977940;28;20066;-94
2021/12/27 06:09:18;;;;;;;13.57;7.45;;;4.30;99.90;;;;;;4966563;28;20030;-95
2021/12/27 06:11:43;;;;;;;9.18;6.40;;;4.30;99.90;;;;;;4967253;28;20039;-95
2021/12/27 06:14:09;;;;;;;9.88;7.53;;;4.30;99.90;;;;;;4952385;28;20035;-95
2021/12/27 06:16:35;;;;;;;11.80;8.32;;;4.30;99.90;;;;;;4930723;28;20038;-95
2021/12/27 06:19:00;;;;;;;10.25;7.22;;;4.30;99.90;;;;;;4973386;28;20376;-94
2021/12/27 06:21:26;;;;;;;10.55;7.38;;;4.30;99.90;;;;;;4986374;28;20034;-95
2021/12/27 06:23:52;;;;;;;10.95;7.65;;;4.30;99.90;;;;;;4965786;28;20046;-96
2021/12/27 06:26:17;;;;;;;16.42;8.80;;;4.30;99.90;;;;;;4965818;28;20161;-95
2021/12/27 06:28:44;;;;;;;10.57;7.38;;;4.40;99.90;;;;;;4984129;28;20039;-93
2021/12/27 06:31:10;;;;;;;11.95;7.40;;;4.40;99.90;;;;;;4973037;28;20058;-95
2021/12/27 06:33:35;;;;;;;11.50;8.13;;;4.40;99.90;;;;;;4961832;28;20516;-94
2021/12/27 06:36:01;;;;;;;11.65;8.20;;;4.30;99.90;;;;;;4959494;28;20026;-93
2021/12/27 06:38:28;;;;;;;14.82;9.13;;;4.40;99.90;;;;;;4974916;28;20015;-95
2021/12/27 06:40:55;;;;;;;11.18;7.38;;;4.30;99.90;;;;;;4972252;28;20483;-94
2021/12/27 06:43:21;;;;;;;14.23;8.88;;;4.40;99.90;;;;;;4968570;28;20035;-93
2021/12/27 06:45:49;;;;;;;12.40;8.00;;;4.40;99.90;;;;;;4965327;28;20045;-94
2021/12/27 06:48:15;;;;;;;10.18;6.72;;;4.40;99.90;;;;;;4976295;28;20145;-92
2021/12/27 06:50:41;;;;;;;12.38;8.45;;;4.40;99.90;;;;;;4989882;28;20038;-94
2021/12/27 06:53:07;;;;;;;9.77;6.75;;;4.40;99.90;;;;;;4988227;28;20093;-94
2021/12/27 06:55:32;;;;;;;9.10;6.38;;;4.40;99.90;;;;;;4988484;28;20038;-93
2021/12/27 06:57:58;;;;;;;11.27;7.53;;;4.50;99.90;;;;;;4975955;28;20041;-95
2021/12/27 07:00:24;;;;;;;9.10;6.45;;;4.50;99.90;;;;;;4948897;28;20039;-93
2021/12/27 07:02:49;;;;;;;10.10;6.78;;;4.50;99.90;;;;;;4975102;28;20045;-95
2021/12/27 07:05:17;;;;;;;9.98;6.45;;;4.50;99.90;;;;;;4928268;28;20039;-94
2021/12/27 07:08:03;;;;;;;9.88;7.25;;;4.50;99.90;;;;;;4958095;28;20114;-95
2021/12/27 07:10:32;;;;;;;10.30;6.40;;;4.60;99.90;;;;;;4964556;28;20026;-94
2021/12/27 07:13:03;;;;;;;9.43;5.97;;;4.50;99.90;;;;;;4985407;28;20038;-94
2021/12/27 07:15:51;;;;;;;8.63;6.35;;;4.60;99.90;;;;;;4946081;28;20409;-95
2021/12/27 07:18:29;;;;;;;9.63;6.70;;;4.60;99.90;;;;;;4952350;28;20035;-92
2021/12/27 07:20:58;;;;;;;10.38;7.03;;;4.70;99.90;;;;;;4935808;28;20034;-94
2021/12/27 07:23:38;;;;;;;11.15;7.85;;;4.60;99.90;;;;;;4935352;28;20057;-95
2021/12/27 07:26:07;;;;;;;11.68;7.55;;;4.60;99.90;;;;;;4961636;28;20054;-95
2021/12/27 07:28:33;;;;;;;10.45;7.47;;;4.60;99.90;;;;;;4941862;28;20709;-94
2021/12/27 07:30:59;;;;;;;11.18;7.40;;;4.60;99.90;;;;;;4952499;28;20030;-93
2021/12/27 07:33:25;;;;;;;9.05;6.47;;;4.60;99.90;;;;;;4972733;28;20073;-94
2021/12/27 07:36:00;;;;;;;11.13;7.57;;;4.70;99.90;;;;;;4937066;28;20106;-93
2021/12/27 07:42:02;;;;;;;10.00;6.17;;;4.70;99.90;;;;;;4979379;28;20022;-93
2021/12/27 07:44:34;;;;;;;10.38;7.20;;;4.70;99.90;;;;;;4993143;28;20286;-91
2021/12/27 07:47:01;;;;;;;9.27;6.57;;;4.70;99.90;;;;;;4988891;28;20042;-93
2021/12/27 07:49:37;;;;;;;11.32;6.60;;;4.70;99.90;;;;;;4958652;28;20046;-91
2021/12/27 07:52:11;;;;;;;9.68;6.88;;;4.90;99.90;;;;;;4983622;28;20037;-92
2021/12/27 07:54:37;;;;;;;8.07;5.57;;;4.70;99.90;;;;;;4979975;28;20054;-93
2021/12/27 07:57:06;;;;;;;10.00;5.65;;;4.80;99.90;;;;;;4987140;28;20037;-94
2021/12/27 07:59:58;;;;;;;8.25;5.88;;;4.90;99.90;;;;;;4947029;28;20057;-95
2021/12/27 08:02:26;;;;;;;8.82;6.85;;;4.90;99.90;;;;;;4883621;28;20031;-94
2021/12/27 08:04:55;;;;;;;9.18;5.82;;;4.80;99.90;;;;;;4963203;28;20046;-95
2021/12/27 08:07:21;;;;;;;11.30;6.68;;;4.90;99.90;;;;;;4942775;28;20034;-94
2021/12/27 08:09:49;;;;;;;9.80;6.65;;;4.90;99.90;;;;;;4968172;28;20145;-95
2021/12/27 08:12:18;;;;;;;8.75;6.10;;;4.90;99.90;;;;;;4985832;28;20034;-93
2021/12/27 08:14:46;;;;;;;9.15;6.03;;;4.80;99.90;;;;;;4956220;28;20037;-93
2021/12/27 08:17:12;;;;;;;10.95;7.13;;;4.80;99.90;;;;;;4956836;28;20062;-95
2021/12/27 08:19:38;;;;;;;10.98;6.10;;;5.10;99.90;;;;;;4973945;28;20046;-94
2021/12/27 08:22:04;;;;;;;10.32;6.97;;;5.00;99.90;;;;;;4949892;28;20053;-94
2021/12/27 08:24:29;;;;;;;9.10;5.20;;;5.00;99.90;;;;;;4963640;28;20122;-93
2021/12/27 08:26:55;;;;;;;8.93;5.95;;;5.10;99.90;;;;;;4983925;28;20054;-95
2021/12/27 08:29:21;;;;;;;9.02;6.15;;;5.10;99.90;;;;;;4989099;28;21033;-94
2021/12/27 08:32:13;;;;;;;10.10;6.97;;;5.20;99.90;;;;;;4956246;28;20018;-93
2021/12/27 08:34:43;;;;;;;9.48;6.53;;;5.10;99.90;;;;;;5007233;28;20371;-96
2021/12/27 08:40:02;;;;;;;12.57;7.80;;;5.40;99.90;;;;;;4961942;28;20031;-93
2021/12/27 08:42:30;;;;;;;14.63;9.43;;;5.50;99.90;;;;;;4927084;28;20062;-94
2021/12/27 08:44:55;;;;;;;11.05;6.60;;;5.50;99.90;;;;;;4951933;28;20022;-93
2021/12/27 08:47:30;;;;;;;14.90;7.47;;;5.60;99.90;;;;;;4990930;28;20390;-94
2021/12/27 08:50:21;;;;;;;11.73;6.82;;;5.60;99.90;;;;;;5003595;28;20023;-91
2021/12/27 08:52:50;;;;;;;9.68;6.85;;;5.60;99.90;;;;;;4975805;28;20038;-93
2021/12/27 08:55:16;;;;;;;9.98;6.38;;;5.70;99.90;;;;;;4960673;28;20037;-94
2021/12/27 08:57:42;;;;;;;8.98;5.82;;;5.70;99.90;;;;;;4943113;28;20059;-94
2021/12/27 09:00:16;;;;;;;10.85;6.93;;;5.80;99.90;;;;;;4944404;28;20382;-94
2021/12/27 09:02:50;;;;;;;9.52;6.35;;;5.80;99.90;;;;;;4932132;28;21734;-94
2021/12/27 09:05:42;;;;;;;9.85;5.72;;;5.80;99.90;;;;;;4937733;28;20046;-94
2021/12/27 09:08:08;;;;;;;8.27;6.03;;;5.80;99.90;;;;;;4999514;28;20025;-95
2021/12/27 09:10:34;;;;;;;9.23;6.32;;;6.00;99.90;;;;;;4973603;28;20113;-94
2021/12/27 09:13:02;;;;;;;9.40;5.57;;;6.20;99.90;;;;;;4966291;28;20107;-95
2021/12/27 09:15:29;;;;;;;9.93;6.00;;;6.10;99.90;;;;;;4924842;28;20114;-94
2021/12/27 09:18:07;;;;;;;9.63;6.55;;;6.30;99.90;;;;;;4950012;28;20031;-96
2021/12/27 09:20:33;;;;;;;9.40;5.38;;;6.20;99.90;;;;;;4950803;28;20058;-95
2021/12/27 09:22:59;;;;;;;6.82;5.20;;;6.20;99.90;;;;;;4988028;28;20037;-94
2021/12/27 09:25:27;;;;;;;8.30;6.00;;;6.30;99.90;;;;;;4969803;28;20045;-96
2021/12/27 09:27:53;;;;;;;9.25;5.85;;;6.30;99.90;;;;;;4996323;28;20069;-95
2021/12/27 09:30:19;;;;;;;11.90;6.35;;;6.40;99.90;;;;;;4962094;28;20022;-94
2021/12/27 09:32:53;;;;;;;7.70;5.45;;;6.40;99.90;;;;;;4961394;28;20412;-95
2021/12/27 09:35:23;;;;;;;9.60;4.93;;;6.60;99.90;;;;;;4950363;28;20069;-94
2021/12/27 09:37:52;;;;;;;7.60;4.90;;;6.80;99.90;;;;;;4943395;28;20116;-95
2021/12/27 09:40:18;;;;;;;7.45;5.05;;;7.00;99.90;;;;;;4962216;28;20030;-94
2021/12/27 09:43:13;;;;;;;7.50;4.47;;;7.10;99.90;;;;;;4969720;28;20391;-95
2021/12/27 09:45:53;;;;;;;8.48;5.65;;;7.30;99.90;;;;;;4922156;28;20121;-96
2021/12/27 09:48:22;;;;;;;5.88;4.22;;;7.50;99.90;;;;;;4918863;28;20049;-94
2021/12/27 09:50:51;;;;;;;6.97;4.32;;;7.40;99.90;;;;;;4960724;28;20030;-94
2021/12/27 09:53:21;;;;;;;6.95;3.95;;;7.50;99.90;;;;;;4954048;28;20495;-95
2021/12/27 09:55:47;;;;;;;5.38;3.67;;;7.50;99.90;;;;;;4965951;28;20364;-94
2021/12/27 09:58:12;;;;;;;7.95;4.10;;;8.00;99.90;;;;;;4975872;28;20027;-92
2021/12/27 10:00:44;;;;;;;6.32;4.47;;;7.80;99.90;;;;;;4929270;28;20094;-95
2021/12/27 10:03:15;;;;;;;6.75;4.78;;;8.00;99.90;;;;;;4964019;28;20038;-96
2021/12/27 10:05:53;;;;;;;7.88;4.05;;;8.10;99.90;;;;;;4951542;28;20068;-96
2021/12/27 10:08:35;;;;;;;4.60;3.42;;;8.10;99.90;;;;;;4979868;23;20093;-84
2021/12/27 10:11:01;;;;;;;5.80;3.67;;;8.50;99.90;;;;;;4937672;28;20951;-83
2021/12/27 10:13:27;;;;;;;5.88;3.85;;;8.60;99.90;;;;;;4936908;28;20117;-83
2021/12/27 10:15:52;;;;;;;6.38;3.72;;;8.40;99.90;;;;;;4990816;28;20030;-84
2021/12/27 10:18:18;;;;;;;5.95;3.90;;;8.40;99.90;;;;;;4960004;28;20066;-83
2021/12/27 10:20:45;;;;;;;4.45;3.22;;;8.40;99.90;;;;;;4964226;28;20059;-83
2021/12/27 10:23:12;;;;;;;4.82;3.78;;;8.40;99.90;;;;;;4976611;28;20038;-83
2021/12/27 10:25:38;;;;;;;5.07;3.80;;;8.40;99.90;;;;;;4980876;28;20036;-84
2021/12/27 10:28:04;;;;;;;5.25;3.25;;;8.50;99.90;;;;;;4969234;28;20110;-84
2021/12/27 10:30:32;;;;;;;6.32;3.75;;;8.50;99.90;;;;;;4966825;28;20026;-84
2021/12/27 10:33:09;;;;;;;5.15;3.30;;;8.90;99.90;;;;;;4964249;28;20026;-84
2021/12/27 10:35:57;;;;;;;5.57;3.13;;;9.00;99.90;;;;;;4952042;28;20118;-83
2021/12/27 10:38:31;;;;;;;5.78;3.20;;;9.10;99.90;;;;;;4969597;28;20092;-84
2021/12/27 10:41:11;;;;;;;4.82;2.80;;;9.00;99.90;;;;;;4962115;28;20120;-84
2021/12/27 10:43:41;;;;;;;3.75;3.22;;;9.00;99.90;;;;;;4969541;28;20034;-83
2021/12/27 10:46:12;;;;;;;4.63;3.40;;;9.10;99.90;;;;;;4968930;28;20041;-85
2021/12/27 10:48:55;;;;;;;4.53;3.17;;;9.40;99.90;;;;;;4957854;28;20137;-84
2021/12/27 10:51:21;;;;;;;4.15;2.88;;;9.30;99.90;;;;;;4976676;28;20037;-85
2021/12/27 10:53:56;;;;;;;4.32;3.25;;;9.50;99.90;;;;;;4967961;28;20031;-84
2021/12/27 10:56:23;;;;;;;4.57;3.13;;;9.40;99.90;;;;;;4974194;28;20034;-86
2021/12/27 10:58:56;;;;;;;4.82;2.67;;;9.50;99.90;;;;;;4983870;28;20088;-85
2021/12/27 11:01:24;;;;;;;4.55;3.45;;;9.50;99.90;;;;;;4986562;28;20031;-85
2021/12/27 11:03:51;;;;;;;4.65;3.45;;;9.80;99.90;;;;;;4987490;28;20035;-85
2021/12/27 11:06:21;;;;;;;4.30;3.30;;;9.90;99.90;;;;;;4959340;28;20030;-86
2021/12/27 11:08:47;;;;;;;4.90;2.53;;;9.70;99.90;;;;;;4955501;28;20045;-86
2021/12/27 11:11:13;;;;;;;4.03;2.58;;;9.70;99.90;;;;;;4985671;28;20035;-86
2021/12/27 11:13:39;;;;;;;4.00;2.67;;;10.10;99.90;;;;;;4946077;28;20490;-86
2021/12/27 11:16:04;;;;;;;4.32;2.75;;;10.20;99.90;;;;;;4958562;28;20045;-86
2021/12/27 11:18:44;;;;;;;;;;;;;;;;;;;;;
2021/12/27 11:21:11;;;;;;;3.50;2.40;;;10.50;99.90;;;;;;4980355;28;20030;-84
2021/12/27 11:23:36;;;;;;;3.60;2.80;;;10.40;99.90;;;;;;4988600;28;20597;-84
2021/12/27 11:26:06;;;;;;;3.47;2.55;;;10.30;99.90;;;;;;4985258;28;20030;-84
2021/12/27 11:28:33;;;;;;;3.42;2.33;;;10.30;99.90;;;;;;4945678;28;20023;-85
2021/12/27 11:31:02;;;;;;;4.50;3.10;;;10.20;99.90;;;;;;4963199;28;20031;-83
2021/12/27 11:33:33;;;;;;;5.40;3.00;;;10.10;99.90;;;;;;4969140;28;20030;-84
2021/12/27 11:36:02;;;;;;;4.35;3.70;;;10.00;99.90;;;;;;4974117;28;20532;-84
2021/12/27 11:38:40;;;;;;;3.72;2.60;;;9.90;99.90;;;;;;4982853;28;20470;-84
2021/12/27 11:41:25;;;;;;;4.20;2.75;;;10.00;99.90;;;;;;4942728;28;20037;-84
2021/12/27 11:43:55;;;;;;;2.38;2.17;;;10.00;99.90;;;;;;4995932;28;20494;-84
2021/12/27 11:46:26;;;;;;;3.63;1.85;;;10.30;99.90;;;;;;4954514;28;20510;-84
2021/12/27 11:48:54;;;;;;;3.53;2.30;;;10.20;99.90;;;;;;4968051;28;20030;-84
2021/12/27 11:51:34;;;;;;;5.50;2.22;;;10.40;99.90;;;;;;4948144;28;20114;-84
2021/12/27 11:54:04;;;;;;;3.00;2.08;;;10.30;99.90;;;;;;4951624;28;20031;-84
2021/12/27 11:56:39;;;;;;;2.70;2.20;;;10.30;99.90;;;;;;4969213;28;20598;-84
2021/12/27 11:59:23;;;;;;;2.78;2.28;;;10.30;99.90;;;;;;5001017;28;20026;-84
2021/12/27 12:01:52;;;;;;;2.70;1.85;;;10.40;99.90;;;;;;4967085;28;20062;-85
2021/12/27 12:04:44;;;;;;;2.45;1.73;;;10.40;99.90;;;;;;4959543;28;20100;-84
2021/12/27 12:07:10;;;;;;;3.00;2.00;;;10.30;99.90;;;;;;4977257;28;20031;-84
2021/12/27 12:09:46;;;;;;;2.58;2.08;;;10.40;99.90;;;;;;4953894;28;20053;-84
2021/12/27 12:12:13;;;;;;;2.65;2.08;;;10.30;99.90;;;;;;4967536;28;20096;-84
2021/12/27 12:14:38;;;;;;;2.88;2.00;;;10.30;99.90;;;;;;4949166;28;20455;-85
2021/12/27 12:17:05;;;;;;;4.25;1.95;;;10.30;99.90;;;;;;4971592;28;20066;-84
2021/12/27 12:19:34;;;;;;;3.33;2.10;;;10.20;99.90;;;;;;4970702;28;20033;-84
2021/12/27 12:22:00;;;;;;;1.98;1.63;;;10.20;99.90;;;;;;4954756;28;20613;-84
2021/12/27 12:24:25;;;;;;;2.00;1.83;;;10.20;99.90;;;;;;4955392;28;20035;-84
2021/12/27 12:27:11;;;;;;;3.55;2.13;;;10.30;99.90;;;;;;4967185;28;20056;-84
2021/12/27 12:29:44;;;;;;;2.85;2.38;;;10.10;99.90;;;;;;4969645;28;20034;-84
2021/12/27 12:32:11;;;;;;;2.25;2.00;;;10.10;99.90;;;;;;4941517;28;20035;-84
2021/12/27 12:34:37;;;;;;;3.15;2.10;;;10.00;99.90;;;;;;4966419;28;20089;-84
2021/12/27 12:37:05;;;;;;;2.55;2.10;;;10.10;99.90;;;;;;4993561;28;20093;-84
2021/12/27 12:39:35;;;;;;;2.42;1.95;;;10.10;99.90;;;;;;4954962;28;20431;-84
2021/12/27 12:42:05;;;;;;;2.15;1.80;;;10.20;99.90;;;;;;5012667;28;20034;-84
2021/12/27 12:44:31;;;;;;;1.85;1.70;;;10.10;99.90;;;;;;4946708;28;20038;-84
2021/12/27 12:46:59;;;;;;;2.45;1.75;;;10.20;99.90;;;;;;4954419;28;20037;-84
2021/12/27 12:49:26;;;;;;;2.35;1.95;;;10.30;99.90;;;;;;4957659;28;20085;-84
2021/12/27 12:51:53;;;;;;;2.47;1.70;;;10.50;99.90;;;;;;4952225;28;20041;-84
2021/12/27 12:54:24;;;;;;;2.25;2.03;;;10.60;99.90;;;;;;4983684;28;20040;-84
2021/12/27 12:57:14;;;;;;;3.13;2.30;;;10.60;99.90;;;;;;5001532;28;20076;-84
2021/12/27 12:59:41;;;;;;;3.00;1.70;;;10.50;99.90;;;;;;4968321;28;20550;-84
2021/12/27 13:02:07;;;;;;;2.97;1.83;;;10.60;99.90;;;;;;4987285;28;20520;-84
2021/12/27 13:05:00;;;;;;;2.05;1.50;;;10.40;99.90;;;;;;4986611;28;20098;-84
2021/12/27 13:07:46;;;;;;;2.85;2.05;;;10.60;99.90;;;;;;4987743;28;20621;-84
2021/12/27 13:10:29;;;;;;;2.03;1.80;;;10.60;99.90;;;;;;4960386;28;20034;-83
2021/12/27 13:12:58;;;;;;;1.88;1.55;;;10.60;99.90;;;;;;4955840;28;20060;-84